createdAt,value
2022-10-03T00:00:20.663Z,12.20
2022-10-03T00:03:06.111Z,12.10
2022-10-03T00:05:52.532Z,12.10
2022-10-03T00:08:34.269Z,12.10
2022-10-03T00:11:34.818Z,12.10
2022-10-03T00:14:16.700Z,12.10
2022-10-03T00:17:08.591Z,12.10
2022-10-03T00:19:44.208Z,12.10
2022-10-03T00:22:43.511Z,11.90
2022-10-03T00:25:17.808Z,11.80
2022-10-03T00:27:49.648Z,11.90
2022-10-03T00:30:24.573Z,11.80
2022-10-03T00:33:23.852Z,11.90
2022-10-03T00:35:56.130Z,11.80
2022-10-03T00:38:31.590Z,11.70
2022-10-03T00:41:09.146Z,11.70
2022-10-03T00:43:43.299Z,11.70
2022-10-03T00:46:10.873Z,11.80
2022-10-03T00:48:49.586Z,11.80
2022-10-03T00:51:34.587Z,11.70
2022-10-03T00:54:09.169Z,11.70
2022-10-03T00:56:57.002Z,11.70
2022-10-03T00:59:39.288Z,11.70
2022-10-03T01:02:30.063Z,11.70
2022-10-03T01:05:21.195Z,11.70
2022-10-03T01:07:56.145Z,11.70
2022-10-03T01:10:35.041Z,11.60
2022-10-03T01:13:15.778Z,11.60
2022-10-03T01:16:01.254Z,11.50
2022-10-03T01:19:09.174Z,11.50
2022-10-03T01:22:02.204Z,11.50
2022-10-03T01:24:47.087Z,11.50
2022-10-03T01:28:17.933Z,11.40
2022-10-03T01:30:54.370Z,11.30
2022-10-03T01:33:41.346Z,11.30
2022-10-03T01:36:11.053Z,11.40
2022-10-03T01:38:57.049Z,11.30
2022-10-03T01:41:33.691Z,11.30
2022-10-03T01:44:25.333Z,11.30
2022-10-03T01:47:07.165Z,11.30
2022-10-03T01:49:40.150Z,11.20
2022-10-03T01:52:27.240Z,11.20
2022-10-03T01:55:05.346Z,11.10
2022-10-03T01:57:55.084Z,11.10
2022-10-03T02:00:26.013Z,11.10
2022-10-03T02:03:15.958Z,11.10
2022-10-03T02:06:01.033Z,11.00
2022-10-03T02:08:37.029Z,11.00
2022-10-03T02:11:09.968Z,10.90
2022-10-03T02:13:57.781Z,10.90
2022-10-03T02:16:35.800Z,11.00
2022-10-03T02:19:14.106Z,11.20
2022-10-03T02:21:55.982Z,11.10
2022-10-03T02:24:52.790Z,11.20
2022-10-03T02:28:00.621Z,11.10
2022-10-03T02:31:11.691Z,11.10
2022-10-03T02:33:54.014Z,11.10
2022-10-03T02:36:48.688Z,11.10
2022-10-03T02:39:39.366Z,11.10
2022-10-03T02:42:25.129Z,11.10
2022-10-03T02:45:21.452Z,11.10
2022-10-03T02:48:31.897Z,11.20
2022-10-03T02:51:31.504Z,11.30
2022-10-03T02:54:03.997Z,11.30
2022-10-03T02:56:56.329Z,11.30
2022-10-03T02:59:31.314Z,11.30
2022-10-03T03:02:26.673Z,11.40
2022-10-03T03:05:24.795Z,11.40
2022-10-03T03:08:28.431Z,11.40
2022-10-03T03:11:22.301Z,11.40
2022-10-03T03:13:55.154Z,11.40
2022-10-03T03:16:40.686Z,11.30
2022-10-03T03:19:21.288Z,11.30
2022-10-03T03:22:01.222Z,11.40
2022-10-03T03:24:33.790Z,11.40
2022-10-03T03:27:24.803Z,11.40
2022-10-03T03:30:10.049Z,11.40
2022-10-03T03:33:05.046Z,11.40
2022-10-03T03:35:59.377Z,11.40
2022-10-03T03:38:41.033Z,11.50
2022-10-03T03:41:41.930Z,11.40
2022-10-03T03:44:39.518Z,11.60
2022-10-03T03:47:14.593Z,11.50
2022-10-03T03:49:57.965Z,11.40
2022-10-03T03:52:58.126Z,11.40
2022-10-03T03:55:33.875Z,11.40
2022-10-03T03:58:00.706Z,11.40
2022-10-03T04:01:03.433Z,11.40
2022-10-03T04:04:22.857Z,11.40
2022-10-03T04:07:26.020Z,11.40
2022-10-03T04:10:01.790Z,11.40
2022-10-03T04:12:43.952Z,11.40
2022-10-03T04:15:25.190Z,11.30
2022-10-03T04:18:19.474Z,11.30
2022-10-03T04:21:00.878Z,11.30
2022-10-03T04:23:46.031Z,11.30
2022-10-03T04:26:27.153Z,11.40
2022-10-03T04:29:19.331Z,11.40
2022-10-03T04:32:18.598Z,11.30
2022-10-03T04:35:11.498Z,11.30
2022-10-03T04:37:40.999Z,11.30
2022-10-03T04:40:42.014Z,11.30
2022-10-03T04:43:41.626Z,11.30
2022-10-03T04:46:29.935Z,11.20
2022-10-03T04:49:02.591Z,11.30
2022-10-03T04:51:55.566Z,11.30
2022-10-03T04:54:33.169Z,11.30
2022-10-03T04:57:27.429Z,11.30
2022-10-03T05:00:08.326Z,11.20
2022-10-03T05:02:51.342Z,11.20
2022-10-03T05:05:29.867Z,11.20
2022-10-03T05:08:15.453Z,11.20
2022-10-03T05:11:06.700Z,11.20
2022-10-03T05:14:00.767Z,11.20
2022-10-03T05:16:36.283Z,11.10
2022-10-03T05:19:14.993Z,11.20
2022-10-03T05:21:56.582Z,11.20
2022-10-03T05:24:45.070Z,11.20
2022-10-03T05:27:17.633Z,11.20
2022-10-03T05:29:55.658Z,11.10
2022-10-03T05:32:44.469Z,11.10
2022-10-03T05:35:26.209Z,11.10
2022-10-03T05:38:16.196Z,11.10
2022-10-03T05:41:02.422Z,11.10
2022-10-03T05:43:58.142Z,11.10
2022-10-03T05:46:40.588Z,11.00
2022-10-03T05:49:34.552Z,11.10
2022-10-03T05:52:19.802Z,11.20
2022-10-03T05:55:01.513Z,11.10
2022-10-03T05:57:49.553Z,11.10
2022-10-03T06:00:21.428Z,11.00
2022-10-03T06:02:54.265Z,11.00
2022-10-03T06:05:42.181Z,11.10
2022-10-03T06:08:41.224Z,11.10
2022-10-03T06:11:07.813Z,11.00
2022-10-03T06:13:34.400Z,11.10
2022-10-03T06:16:45.418Z,11.10
2022-10-03T06:19:50.335Z,11.10
2022-10-03T06:22:35.004Z,11.00
2022-10-03T06:25:28.768Z,11.00
2022-10-03T06:27:58.444Z,11.10
2022-10-03T06:30:40.434Z,11.10
2022-10-03T06:33:34.734Z,11.20
2022-10-03T06:36:16.551Z,11.20
2022-10-03T06:38:55.258Z,11.20
2022-10-03T06:41:34.373Z,11.20
2022-10-03T06:44:21.969Z,11.20
2022-10-03T06:47:20.923Z,11.20
2022-10-03T06:50:19.419Z,11.30
2022-10-03T06:53:04.302Z,11.30
2022-10-03T06:55:33.119Z,11.40
2022-10-03T06:58:28.751Z,11.40
2022-10-03T07:01:11.479Z,11.50
2022-10-03T07:03:59.645Z,11.60
2022-10-03T07:06:52.171Z,11.70
2022-10-03T07:09:58.010Z,11.80
2022-10-03T07:12:46.033Z,11.80
2022-10-03T07:16:25.955Z,11.90
2022-10-03T07:19:13.891Z,12.00
2022-10-03T07:22:01.488Z,12.00
2022-10-03T07:24:41.424Z,12.10
2022-10-03T07:27:17.769Z,12.20
2022-10-03T07:30:03.086Z,12.20
2022-10-03T07:32:39.023Z,12.30
2022-10-03T07:36:01.873Z,12.30
2022-10-03T07:38:59.387Z,12.40
2022-10-03T07:41:45.151Z,12.40
2022-10-03T07:44:44.455Z,12.40
2022-10-03T07:47:29.925Z,12.50
2022-10-03T07:50:11.930Z,12.60
2022-10-03T07:52:39.394Z,12.60
2022-10-03T07:55:27.772Z,12.70
2022-10-03T07:58:19.197Z,12.80
2022-10-03T08:01:00.170Z,12.90
2022-10-03T08:03:57.061Z,13.00
2022-10-03T08:06:33.422Z,13.00
2022-10-03T08:09:24.848Z,13.10
2022-10-03T08:12:20.181Z,13.10
2022-10-03T08:14:52.783Z,13.20
2022-10-03T08:17:52.746Z,13.20
2022-10-03T08:20:29.405Z,13.30
2022-10-03T08:23:17.789Z,13.30
2022-10-03T08:26:40.064Z,13.40
2022-10-03T08:29:16.584Z,13.40
2022-10-03T08:32:01.513Z,13.50
2022-10-03T08:34:49.306Z,13.50
2022-10-03T08:38:03.268Z,13.50
2022-10-03T08:41:07.726Z,13.60
2022-10-03T08:43:50.392Z,13.60
2022-10-03T08:46:55.394Z,13.70
2022-10-03T08:49:40.444Z,13.70
2022-10-03T08:52:44.501Z,13.70
2022-10-03T08:55:31.525Z,13.70
2022-10-03T08:58:31.709Z,13.80
2022-10-03T09:01:19.964Z,13.90
2022-10-03T09:04:20.616Z,13.90
2022-10-03T09:07:18.039Z,13.90
2022-10-03T09:10:10.193Z,13.90
2022-10-03T09:13:11.726Z,13.90
2022-10-03T09:15:53.438Z,14.00
2022-10-03T09:18:41.554Z,14.10
2022-10-03T09:21:12.093Z,14.00
2022-10-03T09:23:56.819Z,14.00
2022-10-03T09:26:50.346Z,14.00
2022-10-03T09:29:54.009Z,14.20
2022-10-03T09:32:35.849Z,14.30
2022-10-03T09:35:23.477Z,14.30
2022-10-03T09:38:11.698Z,14.20
2022-10-03T09:40:56.614Z,14.30
2022-10-03T09:43:48.172Z,14.40
2022-10-03T09:46:26.744Z,14.40
2022-10-03T09:49:24.424Z,14.40
2022-10-03T09:52:33.093Z,14.50
2022-10-03T09:55:18.131Z,14.60
2022-10-03T09:58:16.461Z,14.80
2022-10-03T10:01:07.285Z,14.90
2022-10-03T10:03:46.315Z,14.90
2022-10-03T10:06:48.616Z,15.10
2022-10-03T10:09:18.219Z,15.20
2022-10-03T10:12:10.230Z,15.20
2022-10-03T10:15:08.794Z,15.40
2022-10-03T10:17:45.099Z,15.40
2022-10-03T10:20:32.576Z,15.40
2022-10-03T10:23:14.297Z,15.20
2022-10-03T10:25:55.988Z,15.10
2022-10-03T10:28:50.372Z,15.00
2022-10-03T10:31:25.697Z,14.90
2022-10-03T10:34:26.795Z,15.00
2022-10-03T10:37:27.040Z,14.90
2022-10-03T10:40:14.920Z,15.00
2022-10-03T10:43:06.727Z,15.30
2022-10-03T10:46:11.474Z,15.30
2022-10-03T10:49:04.646Z,15.30
2022-10-03T10:51:45.617Z,15.30
2022-10-03T10:54:40.175Z,15.40
2022-10-03T10:57:07.957Z,15.50
2022-10-03T10:59:59.518Z,15.50
2022-10-03T11:03:11.809Z,15.60
2022-10-03T11:05:42.452Z,15.80
2022-10-03T11:08:54.988Z,15.90
2022-10-03T11:11:30.676Z,15.70
2022-10-03T11:14:21.618Z,15.70
2022-10-03T11:17:22.868Z,15.60
2022-10-03T11:20:10.208Z,15.50
2022-10-03T11:23:10.843Z,15.60
2022-10-03T11:26:06.465Z,15.60
2022-10-03T11:28:51.123Z,15.70
2022-10-03T11:32:12.780Z,15.70
2022-10-03T11:35:16.706Z,15.70
2022-10-03T11:37:54.994Z,15.70
2022-10-03T11:40:48.992Z,15.80
2022-10-03T11:44:01.850Z,15.80
2022-10-03T11:47:10.574Z,15.60
2022-10-03T11:50:08.451Z,15.50
2022-10-03T11:52:45.420Z,15.50
2022-10-03T11:55:25.593Z,15.40
2022-10-03T11:58:16.891Z,15.50
2022-10-03T12:00:49.921Z,15.50
2022-10-03T12:03:33.125Z,15.60
2022-10-03T12:06:39.140Z,15.80
2022-10-03T12:09:34.923Z,15.90
2022-10-03T12:12:09.682Z,15.80
2022-10-03T12:14:46.818Z,15.70
2022-10-03T12:17:32.824Z,15.70
2022-10-03T12:20:26.830Z,15.70
2022-10-03T12:23:17.507Z,15.80
2022-10-03T12:25:51.556Z,15.80
2022-10-03T12:28:21.538Z,15.90
2022-10-03T12:31:11.217Z,15.90
2022-10-03T12:34:07.362Z,15.90
2022-10-03T12:36:58.302Z,15.90
2022-10-03T12:39:27.731Z,15.90
2022-10-03T12:42:09.792Z,15.90
2022-10-03T12:45:20.452Z,16.00
2022-10-03T12:48:09.429Z,16.10
2022-10-03T12:50:39.214Z,16.10
2022-10-03T12:53:17.860Z,16.20
2022-10-03T12:55:47.385Z,16.30
2022-10-03T12:58:26.009Z,16.40
2022-10-03T13:01:19.534Z,16.40
2022-10-03T13:03:51.277Z,16.60
2022-10-03T13:07:01.630Z,16.60
2022-10-03T13:09:55.655Z,16.60
2022-10-03T13:12:31.291Z,16.50
2022-10-03T13:15:19.634Z,16.50
2022-10-03T13:18:09.805Z,16.50
2022-10-03T13:20:45.555Z,16.70
2022-10-03T13:23:30.643Z,16.80
2022-10-03T13:26:11.814Z,16.80
2022-10-03T13:29:13.107Z,16.60
2022-10-03T13:31:58.235Z,16.50
2022-10-03T13:34:30.238Z,16.50
2022-10-03T13:37:15.514Z,16.60
2022-10-03T13:39:52.086Z,16.60
2022-10-03T13:42:37.081Z,16.60
2022-10-03T13:45:14.353Z,16.70
2022-10-03T13:47:58.686Z,16.70
2022-10-03T13:50:58.396Z,16.70
2022-10-03T13:53:24.914Z,16.60
2022-10-03T13:55:58.583Z,16.60
2022-10-03T13:59:04.150Z,16.60
2022-10-03T14:01:56.640Z,16.70
2022-10-03T14:04:26.031Z,16.70
2022-10-03T14:06:58.609Z,16.60
2022-10-03T14:09:27.999Z,16.50
2022-10-03T14:12:14.882Z,16.50
2022-10-03T14:14:43.932Z,16.60
2022-10-03T14:17:54.485Z,16.60
2022-10-03T14:20:27.019Z,16.80
2022-10-03T14:23:18.519Z,16.90
2022-10-03T14:26:00.262Z,17.10
2022-10-03T14:28:39.474Z,17.20
2022-10-03T14:31:11.864Z,17.40
2022-10-03T14:34:05.458Z,17.50
2022-10-03T14:37:10.578Z,17.50
2022-10-03T14:40:01.616Z,17.30
2022-10-03T14:42:40.388Z,17.20
2022-10-03T14:45:13.253Z,17.40
2022-10-03T14:47:47.641Z,18.10
2022-10-03T14:50:17.534Z,18.60
2022-10-03T14:52:54.455Z,19.60
2022-10-03T14:55:29.908Z,19.50
2022-10-03T14:58:12.892Z,19.10
2022-10-03T15:00:46.729Z,18.60
2022-10-03T15:03:38.837Z,18.10
2022-10-03T15:06:20.789Z,17.60
2022-10-03T15:08:54.890Z,17.20
2022-10-03T15:14:04.945Z,16.70
2022-10-03T15:16:38.217Z,16.60
2022-10-03T15:19:18.993Z,16.50
2022-10-03T15:21:51.846Z,16.50
2022-10-03T15:24:37.047Z,16.50
2022-10-03T15:27:12.441Z,16.60
2022-10-03T15:29:40.393Z,16.60
2022-10-03T15:32:19.460Z,16.50
2022-10-03T15:34:49.236Z,16.50
2022-10-03T15:37:23.713Z,16.50
2022-10-03T15:39:58.940Z,16.50
2022-10-03T15:42:33.029Z,16.50
2022-10-03T15:45:08.615Z,16.50
2022-10-03T15:47:41.648Z,16.40
2022-10-03T15:50:27.133Z,16.40
2022-10-03T15:53:12.671Z,16.40
2022-10-03T15:56:04.866Z,16.40
2022-10-03T15:58:37.595Z,16.40
2022-10-03T16:01:23.095Z,16.40
2022-10-03T16:03:58.904Z,16.30
2022-10-03T16:06:42.352Z,16.30
2022-10-03T16:09:28.856Z,16.30
2022-10-03T16:12:45.631Z,16.30
2022-10-03T16:15:46.712Z,16.20
2022-10-03T16:18:19.139Z,16.20
2022-10-03T16:20:58.912Z,16.10
2022-10-03T16:23:36.707Z,16.10
2022-10-03T16:26:08.250Z,16.00
2022-10-03T16:28:50.545Z,15.90
2022-10-03T16:31:43.323Z,15.90
2022-10-03T16:34:16.649Z,15.80
2022-10-03T16:36:46.568Z,15.70
2022-10-03T16:39:35.044Z,15.70
2022-10-03T16:42:12.175Z,15.70
2022-10-03T16:44:48.133Z,15.50
2022-10-03T16:47:16.734Z,15.50
2022-10-03T16:50:08.923Z,15.50
2022-10-03T16:52:39.098Z,15.40
2022-10-03T16:55:15.152Z,15.30
2022-10-03T16:57:56.946Z,15.20
2022-10-03T17:00:30.067Z,15.10
2022-10-03T17:02:57.351Z,15.10
2022-10-03T17:05:29.313Z,15.10
2022-10-03T17:08:29.753Z,15.00
2022-10-03T17:11:00.933Z,14.90
2022-10-03T17:13:37.921Z,14.80
2022-10-03T17:16:37.311Z,14.70
2022-10-03T17:19:16.364Z,14.60
2022-10-03T17:21:53.728Z,14.60
2022-10-03T17:24:38.516Z,14.50
2022-10-03T17:27:28.856Z,14.50
2022-10-03T17:30:06.088Z,14.40
2022-10-03T17:32:44.273Z,14.30
2022-10-03T17:35:26.271Z,14.20
2022-10-03T17:38:01.834Z,14.20
2022-10-03T17:41:18.668Z,14.20
2022-10-03T17:44:37.735Z,14.10
2022-10-03T17:47:15.393Z,14.10
2022-10-03T17:49:44.787Z,14.00
2022-10-03T17:52:21.123Z,14.00
2022-10-03T17:54:59.652Z,14.00
2022-10-03T17:57:31.604Z,13.90
2022-10-03T18:00:24.522Z,13.90
2022-10-03T18:03:10.021Z,13.90
2022-10-03T18:05:45.549Z,13.90
2022-10-03T18:08:23.428Z,13.90
2022-10-03T18:10:53.154Z,13.80
2022-10-03T18:13:26.219Z,13.80
2022-10-03T18:16:12.477Z,13.80
2022-10-03T18:18:48.117Z,13.70
2022-10-03T18:21:17.599Z,13.70
2022-10-03T18:24:15.007Z,13.70
2022-10-03T18:26:47.827Z,13.60
2022-10-03T18:29:56.722Z,13.60
2022-10-03T18:32:29.470Z,13.60
2022-10-03T18:35:05.946Z,13.60
2022-10-03T18:37:32.584Z,13.60
2022-10-03T18:40:00.699Z,13.50
2022-10-03T18:42:30.843Z,13.50
2022-10-03T18:44:59.922Z,13.50
2022-10-03T18:47:38.851Z,13.40
2022-10-03T18:50:34.412Z,13.40
2022-10-03T18:53:09.822Z,13.40
2022-10-03T18:55:51.028Z,13.30
2022-10-03T18:58:31.769Z,13.30
2022-10-03T19:01:07.586Z,13.30
2022-10-03T19:03:47.904Z,13.40
2022-10-03T19:06:27.894Z,13.30
2022-10-03T19:08:58.816Z,13.30
2022-10-03T19:11:31.691Z,13.30
2022-10-03T19:14:27.023Z,13.20
2022-10-03T19:17:24.475Z,13.10
2022-10-03T19:19:58.718Z,13.10
2022-10-03T19:22:32.725Z,13.00
2022-10-03T19:25:05.282Z,13.10
2022-10-03T19:27:49.636Z,13.10
2022-10-03T19:30:25.048Z,13.10
2022-10-03T19:33:01.906Z,13.10
2022-10-03T19:35:30.251Z,13.00
2022-10-03T19:38:02.066Z,13.00
2022-10-03T19:40:44.697Z,13.00
2022-10-03T19:43:41.891Z,13.00
2022-10-03T19:46:22.527Z,13.00
2022-10-03T19:49:16.256Z,13.00
2022-10-03T19:51:43.271Z,13.00
2022-10-03T19:54:27.747Z,13.00
2022-10-03T19:56:57.541Z,13.00
2022-10-03T19:59:37.111Z,13.00
2022-10-03T20:02:06.825Z,13.00
2022-10-03T20:04:37.722Z,13.00
2022-10-03T20:07:25.317Z,13.00
2022-10-03T20:09:57.801Z,12.90
2022-10-03T20:12:30.617Z,12.90
2022-10-03T20:15:11.913Z,12.80
2022-10-03T20:17:40.988Z,12.80
2022-10-03T20:20:17.739Z,12.70
2022-10-03T20:22:44.789Z,12.70
2022-10-03T20:25:46.347Z,12.70
2022-10-03T20:28:46.238Z,12.70
2022-10-03T20:31:22.518Z,12.70
2022-10-03T20:33:52.678Z,12.70
2022-10-03T20:36:21.831Z,12.70
2022-10-03T20:39:07.351Z,12.70
2022-10-03T20:41:58.640Z,12.70
2022-10-03T20:44:56.581Z,12.60
2022-10-03T20:47:45.100Z,12.60
2022-10-03T20:50:26.276Z,12.60
2022-10-03T20:53:04.411Z,12.50
2022-10-03T20:55:46.348Z,12.50
2022-10-03T20:58:16.670Z,12.40
2022-10-03T21:00:52.531Z,12.30
2022-10-03T21:03:34.994Z,12.30
2022-10-03T21:06:06.548Z,12.30
2022-10-03T21:08:38.276Z,12.20
2022-10-03T21:11:18.438Z,12.20
2022-10-03T21:14:21.075Z,12.20
2022-10-03T21:16:53.040Z,12.20
2022-10-03T21:19:32.051Z,12.20
2022-10-03T21:22:03.319Z,12.30
2022-10-03T21:25:02.356Z,12.30
2022-10-03T21:27:32.158Z,12.20
2022-10-03T21:30:02.254Z,12.20
2022-10-03T21:32:35.961Z,12.10
2022-10-03T21:35:22.142Z,12.00
2022-10-03T21:37:51.603Z,12.00
2022-10-03T21:40:33.163Z,11.90
2022-10-03T21:43:31.986Z,11.80
2022-10-03T21:46:18.275Z,11.80
2022-10-03T21:49:22.636Z,11.80
2022-10-03T21:51:49.456Z,11.80
2022-10-03T21:54:28.336Z,11.80
2022-10-03T21:57:29.971Z,11.80
2022-10-03T22:00:17.854Z,11.80
2022-10-03T22:03:00.959Z,11.80
2022-10-03T22:06:01.050Z,11.80
2022-10-03T22:08:32.314Z,11.80
2022-10-03T22:11:24.875Z,11.70
2022-10-03T22:14:17.984Z,11.70
2022-10-03T22:16:53.505Z,11.70
2022-10-03T22:19:28.045Z,11.70
2022-10-03T22:22:03.665Z,11.80
2022-10-03T22:24:46.988Z,11.70
2022-10-03T22:27:49.610Z,11.70
2022-10-03T22:30:20.599Z,11.70
2022-10-03T22:32:56.139Z,11.70
2022-10-03T22:36:07.485Z,11.60
2022-10-03T22:38:38.698Z,11.60
2022-10-03T22:41:10.142Z,11.60
2022-10-03T22:43:40.739Z,11.50
2022-10-03T22:46:10.393Z,11.50
2022-10-03T22:48:44.601Z,11.50
2022-10-03T22:51:14.102Z,11.60
2022-10-03T22:53:49.822Z,11.50
2022-10-03T22:56:58.035Z,11.50
2022-10-03T22:59:31.927Z,11.50
2022-10-03T23:02:07.637Z,11.50
2022-10-03T23:04:47.481Z,11.50
2022-10-03T23:07:32.840Z,11.40
2022-10-03T23:11:01.000Z,11.30
2022-10-03T23:13:45.051Z,11.20
2022-10-03T23:16:32.810Z,11.10
2022-10-03T23:19:13.861Z,11.10
2022-10-03T23:21:49.103Z,11.10
2022-10-03T23:24:15.721Z,11.00
2022-10-03T23:27:20.461Z,11.00
2022-10-03T23:30:17.147Z,10.90
2022-10-03T23:32:46.556Z,10.90
2022-10-03T23:35:31.265Z,10.90
2022-10-03T23:37:59.437Z,10.90
2022-10-03T23:40:29.160Z,10.90
2022-10-03T23:43:05.019Z,10.90
2022-10-03T23:45:34.807Z,10.90
2022-10-03T23:48:11.753Z,10.90
2022-10-03T23:50:48.551Z,10.90
2022-10-03T23:53:44.341Z,10.90
2022-10-03T23:56:23.451Z,10.80
2022-10-03T23:59:16.238Z,10.80
